sensor_id;sensor_type;location;lat;lon;timestamp;P1;durP1;ratioP1;P2;durP2;ratioP2
68473;SDS011;55461;52.066;5.194;2022-08-03T00:02:42;4.5;;;1.7;;
68473;SDS011;55461;52.066;5.194;2022-08-03T00:04:28;3.9;;;1.6;;
68473;SDS011;55461;52.066;5.194;2022-08-03T00:06:14;4.2;;;1.8;;
68473;SDS011;55461;52.066;5.194;2022-08-03T00:08:01;5.4;;;1.8;;
68473;SDS011;55461;52.066;5.194;2022-08-03T00:09:49;6.4;;;2.0;;
68473;SDS011;55461;52.066;5.194;2022-08-03T00:11:36;2.8;;;1.7;;
68473;SDS011;55461;52.066;5.194;2022-08-03T00:15:10;6.7;;;2.1;;
68473;SDS011;55461;52.066;5.194;2022-08-03T00:16:57;4.61;;;1.9;;
68473;SDS011;55461;52.066;5.194;2022-08-03T00:18:43;6.1;;;2.1;;
68473;SDS011;55461;52.066;5.194;2022-08-03T00:20:30;5.0;;;1.9;;
68473;SDS011;55461;52.066;5.194;2022-08-03T00:22:16;6.1;;;2.0;;
68473;SDS011;55461;52.066;5.194;2022-08-03T00:25:50;5.6;;;2.0;;
68473;SDS011;55461;52.066;5.194;2022-08-03T00:27:37;4.41;;;2.0;;
68473;SDS011;55461;52.066;5.194;2022-08-03T00:29:23;5.5;;;1.9;;
68473;SDS011;55461;52.066;5.194;2022-08-03T00:31:09;7.6;;;2.21;;
68473;SDS011;55461;52.066;5.194;2022-08-03T00:32:55;6.0;;;1.9;;
68473;SDS011;55461;52.066;5.194;2022-08-03T00:34:42;6.2;;;2.0;;
68473;SDS011;55461;52.066;5.194;2022-08-03T00:38:16;6.0;;;2.1;;
68473;SDS011;55461;52.066;5.194;2022-08-03T00:40:02;5.11;;;1.9;;
68473;SDS011;55461;52.066;5.194;2022-08-03T00:41:49;4.0;;;1.9;;
68473;SDS011;55461;52.066;5.194;2022-08-03T00:43:36;7.4;;;2.4;;
68473;SDS011;55461;52.066;5.194;2022-08-03T00:45:23;6.5;;;2.1;;
68473;SDS011;55461;52.066;5.194;2022-08-03T00:47:13;6.5;;;2.1;;
68473;SDS011;55461;52.066;5.194;2022-08-03T00:50:46;8.81;;;2.6;;
68473;SDS011;55461;52.066;5.194;2022-08-03T00:52:33;5.7;;;2.1;;
68473;SDS011;55461;52.066;5.194;2022-08-03T00:54:20;7.6;;;2.31;;
68473;SDS011;55461;52.066;5.194;2022-08-03T00:56:11;8.5;;;2.1;;
68473;SDS011;55461;52.066;5.194;2022-08-03T00:58:00;6.5;;;2.21;;
68473;SDS011;55461;52.066;5.194;2022-08-03T00:59:48;7.3;;;2.5;;
68473;SDS011;55461;52.066;5.194;2022-08-03T01:03:20;6.9;;;2.5;;
68473;SDS011;55461;52.066;5.194;2022-08-03T01:05:06;6.6;;;2.5;;
68473;SDS011;55461;52.066;5.194;2022-08-03T01:06:56;7.3;;;2.6;;
68473;SDS011;55461;52.066;5.194;2022-08-03T01:08:51;8.2;;;2.9;;
68473;SDS011;55461;52.066;5.194;2022-08-03T01:10:47;8.1;;;2.6;;
68473;SDS011;55461;52.066;5.194;2022-08-03T01:12:51;6.6;;;2.5;;
68473;SDS011;55461;52.066;5.194;2022-08-03T01:14:49;6.9;;;2.4;;
68473;SDS011;55461;52.066;5.194;2022-08-03T01:16:47;5.7;;;2.9;;
68473;SDS011;55461;52.066;5.194;2022-08-03T01:18:43;6.7;;;2.8;;
68473;SDS011;55461;52.066;5.194;2022-08-03T01:20:39;6.2;;;2.6;;
68473;SDS011;55461;52.066;5.194;2022-08-03T01:24:49;6.6;;;3.0;;
68473;SDS011;55461;52.066;5.194;2022-08-03T01:28:56;7.2;;;2.9;;
68473;SDS011;55461;52.066;5.194;2022-08-03T01:30:49;6.9;;;3.0;;
68473;SDS011;55461;52.066;5.194;2022-08-03T01:32:43;7.1;;;2.8;;
68473;SDS011;55461;52.066;5.194;2022-08-03T01:34:39;6.5;;;3.1;;
68473;SDS011;55461;52.066;5.194;2022-08-03T01:36:34;7.0;;;2.8;;
68473;SDS011;55461;52.066;5.194;2022-08-03T01:38:26;8.6;;;3.1;;
68473;SDS011;55461;52.066;5.194;2022-08-03T01:40:18;6.5;;;2.7;;
68473;SDS011;55461;52.066;5.194;2022-08-03T01:42:06;7.1;;;2.9;;
68473;SDS011;55461;52.066;5.194;2022-08-03T01:43:56;8.71;;;3.5;;
68473;SDS011;55461;52.066;5.194;2022-08-03T01:45:45;7.5;;;3.4;;
68473;SDS011;55461;52.066;5.194;2022-08-03T01:49:22;7.5;;;3.4;;
68473;SDS011;55461;52.066;5.194;2022-08-03T01:51:10;7.4;;;3.1;;
68473;SDS011;55461;52.066;5.194;2022-08-03T01:52:58;10.6;;;3.5;;
68473;SDS011;55461;52.066;5.194;2022-08-03T01:54:47;9.31;;;3.4;;
68473;SDS011;55461;52.066;5.194;2022-08-03T01:56:36;11.4;;;3.3;;
68473;SDS011;55461;52.066;5.194;2022-08-03T01:58:25;9.6;;;3.8;;
68473;SDS011;55461;52.066;5.194;2022-08-03T02:02:04;8.9;;;3.9;;
68473;SDS011;55461;52.066;5.194;2022-08-03T02:03:53;9.31;;;3.6;;
68473;SDS011;55461;52.066;5.194;2022-08-03T02:05:42;7.0;;;3.4;;
68473;SDS011;55461;52.066;5.194;2022-08-03T02:07:32;7.9;;;3.7;;
68473;SDS011;55461;52.066;5.194;2022-08-03T02:09:20;6.5;;;3.4;;
68473;SDS011;55461;52.066;5.194;2022-08-03T02:11:08;9.0;;;3.8;;
68473;SDS011;55461;52.066;5.194;2022-08-03T02:12:56;7.8;;;3.7;;
68473;SDS011;55461;52.066;5.194;2022-08-03T02:16:35;7.6;;;3.3;;
68473;SDS011;55461;52.066;5.194;2022-08-03T02:18:21;10.8;;;3.6;;
68473;SDS011;55461;52.066;5.194;2022-08-03T02:20:11;7.7;;;3.6;;
68473;SDS011;55461;52.066;5.194;2022-08-03T02:22:00;9.5;;;3.4;;
68473;SDS011;55461;52.066;5.194;2022-08-03T02:23:48;7.2;;;3.6;;
68473;SDS011;55461;52.066;5.194;2022-08-03T02:25:38;8.71;;;3.9;;
68473;SDS011;55461;52.066;5.194;2022-08-03T02:27:35;9.6;;;3.8;;
68473;SDS011;55461;52.066;5.194;2022-08-03T02:31:21;6.4;;;3.3;;
68473;SDS011;55461;52.066;5.194;2022-08-03T02:33:15;7.3;;;3.5;;
68473;SDS011;55461;52.066;5.194;2022-08-03T02:35:10;9.0;;;3.5;;
68473;SDS011;55461;52.066;5.194;2022-08-03T02:36:59;9.0;;;3.5;;
68473;SDS011;55461;52.066;5.194;2022-08-03T02:38:47;7.9;;;3.2;;
68473;SDS011;55461;52.066;5.194;2022-08-03T02:40:37;11.7;;;3.5;;
68473;SDS011;55461;52.066;5.194;2022-08-03T02:42:29;8.31;;;3.3;;
68473;SDS011;55461;52.066;5.194;2022-08-03T02:44:22;9.31;;;3.5;;
68473;SDS011;55461;52.066;5.194;2022-08-03T02:48:03;8.31;;;3.7;;
68473;SDS011;55461;52.066;5.194;2022-08-03T02:49:51;10.3;;;3.6;;
68473;SDS011;55461;52.066;5.194;2022-08-03T02:51:41;9.21;;;3.5;;
68473;SDS011;55461;52.066;5.194;2022-08-03T02:53:29;8.4;;;3.5;;
68473;SDS011;55461;52.066;5.194;2022-08-03T02:55:19;7.7;;;3.5;;
68473;SDS011;55461;52.066;5.194;2022-08-03T02:57:09;7.9;;;3.5;;
68473;SDS011;55461;52.066;5.194;2022-08-03T02:58:59;10.3;;;3.6;;
68473;SDS011;55461;52.066;5.194;2022-08-03T03:02:35;8.4;;;3.3;;
68473;SDS011;55461;52.066;5.194;2022-08-03T03:04:23;8.5;;;3.5;;
68473;SDS011;55461;52.066;5.194;2022-08-03T03:06:12;8.81;;;3.3;;
68473;SDS011;55461;52.066;5.194;2022-08-03T03:08:01;11.1;;;4.2;;
68473;SDS011;55461;52.066;5.194;2022-08-03T03:09:49;9.71;;;3.7;;
68473;SDS011;55461;52.066;5.194;2022-08-03T03:11:37;10.5;;;3.7;;
68473;SDS011;55461;52.066;5.194;2022-08-03T03:15:14;10.9;;;3.9;;
68473;SDS011;55461;52.066;5.194;2022-08-03T03:17:01;9.4;;;4.1;;
68473;SDS011;55461;52.066;5.194;2022-08-03T03:18:48;8.71;;;3.5;;
68473;SDS011;55461;52.066;5.194;2022-08-03T03:20:36;13.3;;;3.9;;
68473;SDS011;55461;52.066;5.194;2022-08-03T03:22:25;9.31;;;3.7;;
68473;SDS011;55461;52.066;5.194;2022-08-03T03:24:13;8.5;;;3.5;;
68473;SDS011;55461;52.066;5.194;2022-08-03T03:27:48;9.4;;;3.9;;
68473;SDS011;55461;52.066;5.194;2022-08-03T03:29:35;11.7;;;4.3;;
68473;SDS011;55461;52.066;5.194;2022-08-03T03:31:21;11.0;;;3.8;;
68473;SDS011;55461;52.066;5.194;2022-08-03T03:33:08;11.0;;;3.9;;
68473;SDS011;55461;52.066;5.194;2022-08-03T03:34:56;7.2;;;3.6;;
68473;SDS011;55461;52.066;5.194;2022-08-03T03:36:45;10.5;;;3.6;;
68473;SDS011;55461;52.066;5.194;2022-08-03T03:40:19;9.71;;;4.2;;
68473;SDS011;55461;52.066;5.194;2022-08-03T03:42:07;10.4;;;3.7;;
68473;SDS011;55461;52.066;5.194;2022-08-03T03:43:54;10.3;;;3.8;;
68473;SDS011;55461;52.066;5.194;2022-08-03T03:45:41;11.9;;;3.8;;
68473;SDS011;55461;52.066;5.194;2022-08-03T03:47:28;11.0;;;3.9;;
68473;SDS011;55461;52.066;5.194;2022-08-03T03:49:15;11.7;;;4.2;;
68473;SDS011;55461;52.066;5.194;2022-08-03T03:52:48;9.31;;;4.0;;
68473;SDS011;55461;52.066;5.194;2022-08-03T03:54:38;9.71;;;4.0;;
68473;SDS011;55461;52.066;5.194;2022-08-03T03:56:26;6.9;;;3.7;;
68473;SDS011;55461;52.066;5.194;2022-08-03T03:58:14;13.5;;;4.3;;
68473;SDS011;55461;52.066;5.194;2022-08-03T04:00:00;10.3;;;4.41;;
68473;SDS011;55461;52.066;5.194;2022-08-03T04:01:47;10.9;;;4.0;;
68473;SDS011;55461;52.066;5.194;2022-08-03T04:11:25;10.9;;;4.3;;
68473;SDS011;55461;52.066;5.194;2022-08-03T04:13:15;10.4;;;4.2;;
68473;SDS011;55461;52.066;5.194;2022-08-03T04:15:03;12.9;;;4.41;;
68473;SDS011;55461;52.066;5.194;2022-08-03T04:16:52;10.8;;;4.3;;
68473;SDS011;55461;52.066;5.194;2022-08-03T04:18:43;12.2;;;4.0;;
68473;SDS011;55461;52.066;5.194;2022-08-03T04:20:35;10.9;;;4.61;;
68473;SDS011;55461;52.066;5.194;2022-08-03T04:24:16;12.2;;;4.41;;
68473;SDS011;55461;52.066;5.194;2022-08-03T04:26:05;9.81;;;4.2;;
68473;SDS011;55461;52.066;5.194;2022-08-03T04:27:58;11.6;;;4.2;;
68473;SDS011;55461;52.066;5.194;2022-08-03T04:29:46;11.4;;;4.2;;
68473;SDS011;55461;52.066;5.194;2022-08-03T04:31:37;10.8;;;4.2;;
68473;SDS011;55461;52.066;5.194;2022-08-03T04:33:26;11.6;;;4.2;;
68473;SDS011;55461;52.066;5.194;2022-08-03T04:35:17;11.5;;;4.2;;
68473;SDS011;55461;52.066;5.194;2022-08-03T04:39:10;9.31;;;4.0;;
68473;SDS011;55461;52.066;5.194;2022-08-03T04:41:01;10.5;;;4.0;;
68473;SDS011;55461;52.066;5.194;2022-08-03T04:42:49;10.0;;;4.41;;
68473;SDS011;55461;52.066;5.194;2022-08-03T04:44:40;11.7;;;4.41;;
68473;SDS011;55461;52.066;5.194;2022-08-03T04:46:30;11.3;;;4.3;;
68473;SDS011;55461;52.066;5.194;2022-08-03T04:48:22;14.0;;;4.41;;
68473;SDS011;55461;52.066;5.194;2022-08-03T04:50:09;10.0;;;3.8;;
68473;SDS011;55461;52.066;5.194;2022-08-03T04:51:56;10.21;;;4.3;;
68473;SDS011;55461;52.066;5.194;2022-08-03T04:55:30;12.8;;;4.61;;
68473;SDS011;55461;52.066;5.194;2022-08-03T04:57:19;12.8;;;4.61;;
68473;SDS011;55461;52.066;5.194;2022-08-03T04:59:06;11.6;;;4.0;;
68473;SDS011;55461;52.066;5.194;2022-08-03T05:00:52;11.5;;;4.1;;
68473;SDS011;55461;52.066;5.194;2022-08-03T05:02:39;10.8;;;4.1;;
68473;SDS011;55461;52.066;5.194;2022-08-03T05:04:25;10.21;;;3.8;;
68473;SDS011;55461;52.066;5.194;2022-08-03T05:07:57;14.1;;;4.3;;
68473;SDS011;55461;52.066;5.194;2022-08-03T05:09:44;11.5;;;4.41;;
68473;SDS011;55461;52.066;5.194;2022-08-03T05:11:31;8.81;;;3.7;;
68473;SDS011;55461;52.066;5.194;2022-08-03T05:13:17;11.8;;;3.5;;
68473;SDS011;55461;52.066;5.194;2022-08-03T05:15:05;14.7;;;4.0;;
68473;SDS011;55461;52.066;5.194;2022-08-03T05:18:38;12.9;;;3.6;;
68473;SDS011;55461;52.066;5.194;2022-08-03T05:20:25;8.81;;;4.0;;
68473;SDS011;55461;52.066;5.194;2022-08-03T05:22:12;9.81;;;4.3;;
68473;SDS011;55461;52.066;5.194;2022-08-03T05:23:58;10.9;;;3.9;;
68473;SDS011;55461;52.066;5.194;2022-08-03T05:25:44;9.1;;;4.0;;
68473;SDS011;55461;52.066;5.194;2022-08-03T05:27:31;15.3;;;4.2;;
68473;SDS011;55461;52.066;5.194;2022-08-03T05:31:04;12.9;;;4.1;;
68473;SDS011;55461;52.066;5.194;2022-08-03T05:32:52;13.1;;;4.1;;
68473;SDS011;55461;52.066;5.194;2022-08-03T05:34:38;13.6;;;4.7;;
68473;SDS011;55461;52.066;5.194;2022-08-03T05:36:24;11.8;;;3.8;;
68473;SDS011;55461;52.066;5.194;2022-08-03T05:38:11;11.9;;;4.1;;
68473;SDS011;55461;52.066;5.194;2022-08-03T05:41:43;13.1;;;4.2;;
68473;SDS011;55461;52.066;5.194;2022-08-03T05:43:31;10.5;;;4.1;;
68473;SDS011;55461;52.066;5.194;2022-08-03T05:45:18;12.1;;;4.1;;
68473;SDS011;55461;52.066;5.194;2022-08-03T05:47:05;9.81;;;3.9;;
68473;SDS011;55461;52.066;5.194;2022-08-03T05:48:51;14.8;;;4.1;;
68473;SDS011;55461;52.066;5.194;2022-08-03T05:50:37;14.8;;;4.7;;
68473;SDS011;55461;52.066;5.194;2022-08-03T05:54:09;15.0;;;4.1;;
68473;SDS011;55461;52.066;5.194;2022-08-03T05:55:57;11.5;;;4.0;;
68473;SDS011;55461;52.066;5.194;2022-08-03T05:57:44;12.2;;;4.0;;
68473;SDS011;55461;52.066;5.194;2022-08-03T05:59:31;10.3;;;3.8;;
68473;SDS011;55461;52.066;5.194;2022-08-03T06:01:17;12.8;;;4.1;;
68473;SDS011;55461;52.066;5.194;2022-08-03T06:03:05;11.3;;;3.9;;
68473;SDS011;55461;52.066;5.194;2022-08-03T06:06:39;11.5;;;3.6;;
68473;SDS011;55461;52.066;5.194;2022-08-03T06:08:25;15.9;;;4.2;;
68473;SDS011;55461;52.066;5.194;2022-08-03T06:10:11;10.9;;;3.8;;
68473;SDS011;55461;52.066;5.194;2022-08-03T06:11:57;11.2;;;4.2;;
68473;SDS011;55461;52.066;5.194;2022-08-03T06:13:43;11.1;;;4.2;;
68473;SDS011;55461;52.066;5.194;2022-08-03T06:17:18;14.9;;;3.9;;
68473;SDS011;55461;52.066;5.194;2022-08-03T06:19:06;11.4;;;3.7;;
68473;SDS011;55461;52.066;5.194;2022-08-03T06:20:52;11.6;;;3.6;;
68473;SDS011;55461;52.066;5.194;2022-08-03T06:22:39;14.4;;;4.1;;
68473;SDS011;55461;52.066;5.194;2022-08-03T06:24:25;14.3;;;4.0;;
68473;SDS011;55461;52.066;5.194;2022-08-03T06:26:12;11.8;;;3.7;;
68473;SDS011;55461;52.066;5.194;2022-08-03T06:29:45;15.4;;;3.9;;
68473;SDS011;55461;52.066;5.194;2022-08-03T06:31:32;10.1;;;3.5;;
68473;SDS011;55461;52.066;5.194;2022-08-03T06:33:18;13.9;;;3.6;;
68473;SDS011;55461;52.066;5.194;2022-08-03T06:35:05;9.9;;;3.7;;
68473;SDS011;55461;52.066;5.194;2022-08-03T06:36:53;12.0;;;4.2;;
68473;SDS011;55461;52.066;5.194;2022-08-03T06:38:39;14.6;;;4.0;;
68473;SDS011;55461;52.066;5.194;2022-08-03T06:42:15;10.21;;;3.7;;
68473;SDS011;55461;52.066;5.194;2022-08-03T06:44:02;11.9;;;4.1;;
68473;SDS011;55461;52.066;5.194;2022-08-03T06:45:49;15.7;;;4.2;;
68473;SDS011;55461;52.066;5.194;2022-08-03T06:47:36;13.0;;;4.0;;
68473;SDS011;55461;52.066;5.194;2022-08-03T06:49:23;15.7;;;4.1;;
68473;SDS011;55461;52.066;5.194;2022-08-03T06:51:09;13.4;;;3.9;;
68473;SDS011;55461;52.066;5.194;2022-08-03T06:54:44;11.7;;;3.8;;
68473;SDS011;55461;52.066;5.194;2022-08-03T06:56:30;14.8;;;4.1;;
68473;SDS011;55461;52.066;5.194;2022-08-03T06:58:16;16.3;;;4.2;;
68473;SDS011;55461;52.066;5.194;2022-08-03T07:00:03;14.8;;;4.41;;
68473;SDS011;55461;52.066;5.194;2022-08-03T07:01:50;12.7;;;3.8;;
68473;SDS011;55461;52.066;5.194;2022-08-03T07:05:23;10.3;;;3.8;;
68473;SDS011;55461;52.066;5.194;2022-08-03T07:07:10;14.0;;;3.6;;
68473;SDS011;55461;52.066;5.194;2022-08-03T07:08:56;13.9;;;3.8;;
68473;SDS011;55461;52.066;5.194;2022-08-03T07:10:43;12.3;;;3.8;;
68473;SDS011;55461;52.066;5.194;2022-08-03T07:12:30;13.8;;;4.2;;
68473;SDS011;55461;52.066;5.194;2022-08-03T07:14:17;10.4;;;3.7;;
68473;SDS011;55461;52.066;5.194;2022-08-03T07:17:50;10.9;;;3.5;;
68473;SDS011;55461;52.066;5.194;2022-08-03T07:19:36;15.5;;;3.9;;
68473;SDS011;55461;52.066;5.194;2022-08-03T07:21:23;11.8;;;3.6;;
68473;SDS011;55461;52.066;5.194;2022-08-03T07:23:10;12.9;;;3.7;;
68473;SDS011;55461;52.066;5.194;2022-08-03T07:24:56;11.0;;;3.8;;
68473;SDS011;55461;52.066;5.194;2022-08-03T07:26:43;14.6;;;3.9;;
68473;SDS011;55461;52.066;5.194;2022-08-03T07:30:15;10.5;;;3.5;;
68473;SDS011;55461;52.066;5.194;2022-08-03T07:32:03;11.0;;;3.9;;
68473;SDS011;55461;52.066;5.194;2022-08-03T07:33:51;10.4;;;3.3;;
68473;SDS011;55461;52.066;5.194;2022-08-03T07:35:38;13.6;;;3.9;;
68473;SDS011;55461;52.066;5.194;2022-08-03T07:37:24;12.8;;;3.5;;
68473;SDS011;55461;52.066;5.194;2022-08-03T07:40:58;13.6;;;4.2;;
68473;SDS011;55461;52.066;5.194;2022-08-03T07:42:44;14.0;;;3.9;;
68473;SDS011;55461;52.066;5.194;2022-08-03T07:44:31;13.8;;;4.1;;
68473;SDS011;55461;52.066;5.194;2022-08-03T07:46:18;10.6;;;3.9;;
68473;SDS011;55461;52.066;5.194;2022-08-03T07:48:04;12.4;;;3.8;;
68473;SDS011;55461;52.066;5.194;2022-08-03T07:49:50;14.2;;;3.9;;
68473;SDS011;55461;52.066;5.194;2022-08-03T07:53:25;13.6;;;3.6;;
68473;SDS011;55461;52.066;5.194;2022-08-03T07:55:11;11.6;;;3.7;;
68473;SDS011;55461;52.066;5.194;2022-08-03T07:56:59;10.5;;;4.0;;
68473;SDS011;55461;52.066;5.194;2022-08-03T07:58:45;12.8;;;3.4;;
68473;SDS011;55461;52.066;5.194;2022-08-03T08:00:31;11.1;;;3.7;;
68473;SDS011;55461;52.066;5.194;2022-08-03T08:02:18;13.4;;;4.1;;
68473;SDS011;55461;52.066;5.194;2022-08-03T08:05:52;12.0;;;3.9;;
68473;SDS011;55461;52.066;5.194;2022-08-03T08:07:39;10.4;;;3.3;;
68473;SDS011;55461;52.066;5.194;2022-08-03T08:09:26;10.6;;;3.5;;
68473;SDS011;55461;52.066;5.194;2022-08-03T08:11:13;12.2;;;3.8;;
68473;SDS011;55461;52.066;5.194;2022-08-03T08:12:59;12.2;;;3.3;;
68473;SDS011;55461;52.066;5.194;2022-08-03T08:16:32;14.9;;;4.1;;
68473;SDS011;55461;52.066;5.194;2022-08-03T08:18:18;11.0;;;3.7;;
68473;SDS011;55461;52.066;5.194;2022-08-03T08:20:05;10.9;;;3.3;;
68473;SDS011;55461;52.066;5.194;2022-08-03T08:21:53;17.3;;;3.7;;
68473;SDS011;55461;52.066;5.194;2022-08-03T08:23:39;16.0;;;3.9;;
68473;SDS011;55461;52.066;5.194;2022-08-03T08:25:25;12.7;;;3.6;;
68473;SDS011;55461;52.066;5.194;2022-08-03T08:28:59;14.0;;;3.8;;
68473;SDS011;55461;52.066;5.194;2022-08-03T08:30:46;10.7;;;3.8;;
68473;SDS011;55461;52.066;5.194;2022-08-03T08:32:36;12.6;;;3.8;;
68473;SDS011;55461;52.066;5.194;2022-08-03T08:34:22;14.2;;;4.1;;
68473;SDS011;55461;52.066;5.194;2022-08-03T08:36:08;13.9;;;4.1;;
68473;SDS011;55461;52.066;5.194;2022-08-03T08:37:54;14.4;;;3.5;;
68473;SDS011;55461;52.066;5.194;2022-08-03T08:41:27;18.61;;;4.3;;
68473;SDS011;55461;52.066;5.194;2022-08-03T08:43:14;15.1;;;4.2;;
68473;SDS011;55461;52.066;5.194;2022-08-03T08:45:01;12.4;;;3.9;;
68473;SDS011;55461;52.066;5.194;2022-08-03T08:46:48;11.3;;;3.7;;
68473;SDS011;55461;52.066;5.194;2022-08-03T08:48:40;12.4;;;3.4;;
68473;SDS011;55461;52.066;5.194;2022-08-03T08:50:28;11.8;;;4.0;;
68473;SDS011;55461;52.066;5.194;2022-08-03T08:54:09;12.6;;;3.7;;
68473;SDS011;55461;52.066;5.194;2022-08-03T08:55:57;13.8;;;3.8;;
68473;SDS011;55461;52.066;5.194;2022-08-03T08:59:34;15.3;;;4.0;;
68473;SDS011;55461;52.066;5.194;2022-08-03T09:01:22;13.9;;;4.0;;
68473;SDS011;55461;52.066;5.194;2022-08-03T09:03:09;11.7;;;3.7;;
68473;SDS011;55461;52.066;5.194;2022-08-03T09:06:43;12.8;;;3.9;;
68473;SDS011;55461;52.066;5.194;2022-08-03T09:08:29;12.3;;;3.5;;
68473;SDS011;55461;52.066;5.194;2022-08-03T09:10:18;10.8;;;3.7;;
68473;SDS011;55461;52.066;5.194;2022-08-03T09:12:06;14.7;;;3.3;;
68473;SDS011;55461;52.066;5.194;2022-08-03T09:13:53;13.4;;;3.8;;
68473;SDS011;55461;52.066;5.194;2022-08-03T09:15:41;12.1;;;3.4;;
68473;SDS011;55461;52.066;5.194;2022-08-03T09:19:25;12.7;;;3.7;;
68473;SDS011;55461;52.066;5.194;2022-08-03T09:21:12;17.41;;;4.3;;
68473;SDS011;55461;52.066;5.194;2022-08-03T09:23:05;14.5;;;4.0;;
68473;SDS011;55461;52.066;5.194;2022-08-03T09:24:54;12.6;;;3.5;;
68473;SDS011;55461;52.066;5.194;2022-08-03T09:26:48;11.9;;;3.5;;
68473;SDS011;55461;52.066;5.194;2022-08-03T09:28:35;12.6;;;3.4;;
68473;SDS011;55461;52.066;5.194;2022-08-03T09:30:22;10.5;;;3.6;;
68473;SDS011;55461;52.066;5.194;2022-08-03T09:34:00;13.5;;;3.5;;
68473;SDS011;55461;52.066;5.194;2022-08-03T09:35:49;8.71;;;2.9;;
68473;SDS011;55461;52.066;5.194;2022-08-03T09:37:36;12.1;;;3.6;;
68473;SDS011;55461;52.066;5.194;2022-08-03T09:39:24;13.0;;;3.1;;
68473;SDS011;55461;52.066;5.194;2022-08-03T09:41:16;13.9;;;3.7;;
68473;SDS011;55461;52.066;5.194;2022-08-03T09:43:07;12.2;;;3.7;;
68473;SDS011;55461;52.066;5.194;2022-08-03T09:44:54;14.1;;;3.1;;
68473;SDS011;55461;52.066;5.194;2022-08-03T09:48:36;13.6;;;3.1;;
68473;SDS011;55461;52.066;5.194;2022-08-03T09:50:22;10.7;;;3.1;;
68473;SDS011;55461;52.066;5.194;2022-08-03T09:52:13;10.8;;;2.9;;
68473;SDS011;55461;52.066;5.194;2022-08-03T09:54:03;12.2;;;3.3;;
68473;SDS011;55461;52.066;5.194;2022-08-03T09:55:51;10.3;;;2.9;;
68473;SDS011;55461;52.066;5.194;2022-08-03T09:57:44;12.7;;;3.4;;
68473;SDS011;55461;52.066;5.194;2022-08-03T09:59:31;11.0;;;2.9;;
68473;SDS011;55461;52.066;5.194;2022-08-03T10:03:05;11.0;;;2.9;;
68473;SDS011;55461;52.066;5.194;2022-08-03T10:04:52;9.81;;;2.6;;
68473;SDS011;55461;52.066;5.194;2022-08-03T10:06:39;11.5;;;2.8;;
68473;SDS011;55461;52.066;5.194;2022-08-03T10:08:25;9.5;;;3.4;;
68473;SDS011;55461;52.066;5.194;2022-08-03T10:10:12;9.21;;;3.2;;
68473;SDS011;55461;52.066;5.194;2022-08-03T10:12:08;12.6;;;3.6;;
68473;SDS011;55461;52.066;5.194;2022-08-03T10:15:43;11.9;;;3.1;;
68473;SDS011;55461;52.066;5.194;2022-08-03T10:17:30;10.5;;;2.8;;
68473;SDS011;55461;52.066;5.194;2022-08-03T10:19:18;10.7;;;2.9;;
68473;SDS011;55461;52.066;5.194;2022-08-03T10:21:07;15.5;;;3.9;;
68473;SDS011;55461;52.066;5.194;2022-08-03T10:22:55;12.8;;;2.7;;
68473;SDS011;55461;52.066;5.194;2022-08-03T10:24:45;10.7;;;2.7;;
68473;SDS011;55461;52.066;5.194;2022-08-03T10:26:40;13.0;;;2.7;;
68473;SDS011;55461;52.066;5.194;2022-08-03T10:30:20;8.31;;;2.4;;
68473;SDS011;55461;52.066;5.194;2022-08-03T10:32:09;12.4;;;3.2;;
68473;SDS011;55461;52.066;5.194;2022-08-03T10:34:14;12.4;;;2.8;;
68473;SDS011;55461;52.066;5.194;2022-08-03T10:36:07;12.7;;;2.4;;
68473;SDS011;55461;52.066;5.194;2022-08-03T10:37:57;9.5;;;2.7;;
68473;SDS011;55461;52.066;5.194;2022-08-03T10:39:54;8.81;;;2.7;;
68473;SDS011;55461;52.066;5.194;2022-08-03T10:41:45;11.4;;;2.8;;
68473;SDS011;55461;52.066;5.194;2022-08-03T10:43:35;14.3;;;3.0;;
68473;SDS011;55461;52.066;5.194;2022-08-03T10:45:31;12.7;;;2.9;;
68473;SDS011;55461;52.066;5.194;2022-08-03T10:49:11;10.4;;;2.8;;
68473;SDS011;55461;52.066;5.194;2022-08-03T10:50:59;12.9;;;2.8;;
68473;SDS011;55461;52.066;5.194;2022-08-03T10:52:53;8.9;;;2.5;;
68473;SDS011;55461;52.066;5.194;2022-08-03T10:57:44;12.7;;;2.9;;
68473;SDS011;55461;52.066;5.194;2022-08-03T11:01:52;8.81;;;2.6;;
68473;SDS011;55461;52.066;5.194;2022-08-03T11:04:12;9.5;;;2.5;;
68473;SDS011;55461;52.066;5.194;2022-08-03T11:06:13;9.71;;;2.31;;
68473;SDS011;55461;52.066;5.194;2022-08-03T11:08:33;10.1;;;2.4;;
68473;SDS011;55461;52.066;5.194;2022-08-03T11:10:28;9.6;;;2.21;;
68473;SDS011;55461;52.066;5.194;2022-08-03T11:12:20;9.81;;;2.5;;
68473;SDS011;55461;52.066;5.194;2022-08-03T11:14:09;9.21;;;2.0;;
68473;SDS011;55461;52.066;5.194;2022-08-03T11:15:59;7.8;;;2.4;;
68473;SDS011;55461;52.066;5.194;2022-08-03T11:18:01;7.3;;;2.31;;
68473;SDS011;55461;52.066;5.194;2022-08-03T11:19:54;10.4;;;2.6;;
68473;SDS011;55461;52.066;5.194;2022-08-03T11:21:57;15.8;;;3.0;;
68473;SDS011;55461;52.066;5.194;2022-08-03T11:23:45;12.0;;;2.4;;
68473;SDS011;55461;52.066;5.194;2022-08-03T11:25:54;9.31;;;2.5;;
68473;SDS011;55461;52.066;5.194;2022-08-03T11:28:15;9.81;;;2.6;;
68473;SDS011;55461;52.066;5.194;2022-08-03T11:30:15;9.4;;;2.5;;
68473;SDS011;55461;52.066;5.194;2022-08-03T11:32:09;10.21;;;2.4;;
68473;SDS011;55461;52.066;5.194;2022-08-03T11:34:01;10.1;;;2.31;;
68473;SDS011;55461;52.066;5.194;2022-08-03T11:35:56;7.5;;;2.31;;
68473;SDS011;55461;52.066;5.194;2022-08-03T11:38:00;10.3;;;2.5;;
68473;SDS011;55461;52.066;5.194;2022-08-03T11:39:50;9.6;;;2.6;;
68473;SDS011;55461;52.066;5.194;2022-08-03T11:43:57;11.0;;;2.6;;
68473;SDS011;55461;52.066;5.194;2022-08-03T11:45:55;8.5;;;2.6;;
68473;SDS011;55461;52.066;5.194;2022-08-03T11:47:43;9.81;;;2.5;;
68473;SDS011;55461;52.066;5.194;2022-08-03T11:49:30;9.6;;;2.6;;
68473;SDS011;55461;52.066;5.194;2022-08-03T11:51:18;12.1;;;2.5;;
68473;SDS011;55461;52.066;5.194;2022-08-03T11:53:06;8.4;;;2.31;;
68473;SDS011;55461;52.066;5.194;2022-08-03T11:54:52;8.71;;;2.5;;
68473;SDS011;55461;52.066;5.194;2022-08-03T11:56:42;8.9;;;2.31;;
68473;SDS011;55461;52.066;5.194;2022-08-03T12:00:18;9.9;;;2.31;;
68473;SDS011;55461;52.066;5.194;2022-08-03T12:02:07;7.4;;;2.21;;
68473;SDS011;55461;52.066;5.194;2022-08-03T12:03:56;9.71;;;2.21;;
68473;SDS011;55461;52.066;5.194;2022-08-03T12:05:48;8.31;;;2.21;;
68473;SDS011;55461;52.066;5.194;2022-08-03T12:07:36;6.6;;;2.1;;
68473;SDS011;55461;52.066;5.194;2022-08-03T12:09:33;10.9;;;2.31;;
68473;SDS011;55461;52.066;5.194;2022-08-03T12:11:20;6.8;;;2.0;;
68473;SDS011;55461;52.066;5.194;2022-08-03T12:14:54;9.81;;;2.1;;
68473;SDS011;55461;52.066;5.194;2022-08-03T12:16:40;7.9;;;2.31;;
68473;SDS011;55461;52.066;5.194;2022-08-03T12:18:33;9.9;;;2.4;;
68473;SDS011;55461;52.066;5.194;2022-08-03T12:20:21;9.0;;;2.5;;
68473;SDS011;55461;52.066;5.194;2022-08-03T12:22:09;8.6;;;2.4;;
68473;SDS011;55461;52.066;5.194;2022-08-03T12:23:58;9.31;;;2.4;;
68473;SDS011;55461;52.066;5.194;2022-08-03T12:27:34;8.2;;;2.4;;
68473;SDS011;55461;52.066;5.194;2022-08-03T12:29:21;8.71;;;2.21;;
68473;SDS011;55461;52.066;5.194;2022-08-03T12:31:08;5.6;;;2.1;;
68473;SDS011;55461;52.066;5.194;2022-08-03T12:32:55;8.2;;;2.5;;
68473;SDS011;55461;52.066;5.194;2022-08-03T12:34:43;8.31;;;2.8;;
68473;SDS011;55461;52.066;5.194;2022-08-03T12:36:31;10.8;;;2.8;;
68473;SDS011;55461;52.066;5.194;2022-08-03T12:40:10;8.2;;;2.8;;
68473;SDS011;55461;52.066;5.194;2022-08-03T12:41:56;11.8;;;2.9;;
68473;SDS011;55461;52.066;5.194;2022-08-03T12:43:46;7.9;;;2.6;;
68473;SDS011;55461;52.066;5.194;2022-08-03T12:45:33;7.1;;;2.5;;
68473;SDS011;55461;52.066;5.194;2022-08-03T12:47:19;5.8;;;2.31;;
68473;SDS011;55461;52.066;5.194;2022-08-03T12:52:54;7.4;;;2.6;;
68473;SDS011;55461;52.066;5.194;2022-08-03T12:54:41;7.6;;;2.9;;
68473;SDS011;55461;52.066;5.194;2022-08-03T12:56:28;7.8;;;3.3;;
68473;SDS011;55461;52.066;5.194;2022-08-03T12:58:27;8.81;;;3.3;;
68473;SDS011;55461;52.066;5.194;2022-08-03T13:00:16;7.8;;;3.1;;
68473;SDS011;55461;52.066;5.194;2022-08-03T13:02:04;5.7;;;2.6;;
68473;SDS011;55461;52.066;5.194;2022-08-03T13:03:59;5.8;;;3.1;;
68473;SDS011;55461;52.066;5.194;2022-08-03T13:05:45;8.0;;;3.3;;
68473;SDS011;55461;52.066;5.194;2022-08-03T13:09:27;6.5;;;3.1;;